sensor_id;sensor_type;location;lat;lon;timestamp;P1;durP1;ratioP1;P2;durP2;ratioP2
74656;SDS011;63185;45.642;13.764;2024-01-30T00:01:49;18.70;;;10.55;;
74656;SDS011;63185;45.642;13.764;2024-01-30T00:04:15;20.25;;;9.75;;
74656;SDS011;63185;45.642;13.764;2024-01-30T00:06:42;19.83;;;9.57;;
74656;SDS011;63185;45.642;13.764;2024-01-30T00:09:08;21.13;;;10.88;;
74656;SDS011;63185;45.642;13.764;2024-01-30T00:11:34;20.08;;;11.05;;
74656;SDS011;63185;45.642;13.764;2024-01-30T00:14:00;20.88;;;10.93;;
74656;SDS011;63185;45.642;13.764;2024-01-30T00:16:26;20.05;;;11.30;;
74656;SDS011;63185;45.642;13.764;2024-01-30T00:18:52;23.20;;;11.07;;
74656;SDS011;63185;45.642;13.764;2024-01-30T00:21:19;23.05;;;11.02;;
74656;SDS011;63185;45.642;13.764;2024-01-30T00:23:45;21.85;;;11.57;;
74656;SDS011;63185;45.642;13.764;2024-01-30T00:26:10;21.13;;;10.15;;
74656;SDS011;63185;45.642;13.764;2024-01-30T00:28:37;18.52;;;10.10;;
74656;SDS011;63185;45.642;13.764;2024-01-30T00:31:03;21.73;;;10.68;;
74656;SDS011;63185;45.642;13.764;2024-01-30T00:33:29;20.92;;;10.45;;
74656;SDS011;63185;45.642;13.764;2024-01-30T00:35:55;20.23;;;10.75;;
74656;SDS011;63185;45.642;13.764;2024-01-30T00:38:20;22.15;;;10.60;;
74656;SDS011;63185;45.642;13.764;2024-01-30T00:40:46;21.45;;;11.27;;
74656;SDS011;63185;45.642;13.764;2024-01-30T00:43:12;18.63;;;10.48;;
74656;SDS011;63185;45.642;13.764;2024-01-30T00:45:37;19.80;;;10.95;;
74656;SDS011;63185;45.642;13.764;2024-01-30T00:48:03;20.67;;;10.90;;
74656;SDS011;63185;45.642;13.764;2024-01-30T00:50:29;21.85;;;10.02;;
74656;SDS011;63185;45.642;13.764;2024-01-30T00:52:54;23.85;;;11.48;;
74656;SDS011;63185;45.642;13.764;2024-01-30T00:55:20;23.77;;;12.00;;
74656;SDS011;63185;45.642;13.764;2024-01-30T00:57:46;20.95;;;12.13;;
74656;SDS011;63185;45.642;13.764;2024-01-30T01:00:12;22.02;;;11.68;;
74656;SDS011;63185;45.642;13.764;2024-01-30T01:02:41;27.17;;;12.20;;
74656;SDS011;63185;45.642;13.764;2024-01-30T01:05:07;20.48;;;11.77;;
74656;SDS011;63185;45.642;13.764;2024-01-30T01:07:33;22.65;;;11.35;;
74656;SDS011;63185;45.642;13.764;2024-01-30T01:10:00;24.05;;;11.80;;
74656;SDS011;63185;45.642;13.764;2024-01-30T01:12:25;23.40;;;12.60;;
74656;SDS011;63185;45.642;13.764;2024-01-30T01:14:51;23.50;;;12.57;;
74656;SDS011;63185;45.642;13.764;2024-01-30T01:17:17;26.63;;;13.07;;
74656;SDS011;63185;45.642;13.764;2024-01-30T01:19:43;20.08;;;11.90;;
74656;SDS011;63185;45.642;13.764;2024-01-30T01:22:09;21.40;;;11.75;;
74656;SDS011;63185;45.642;13.764;2024-01-30T01:24:35;23.55;;;12.30;;
74656;SDS011;63185;45.642;13.764;2024-01-30T01:27:01;23.70;;;11.82;;
74656;SDS011;63185;45.642;13.764;2024-01-30T01:29:28;23.98;;;11.90;;
74656;SDS011;63185;45.642;13.764;2024-01-30T01:31:57;23.48;;;12.73;;
74656;SDS011;63185;45.642;13.764;2024-01-30T01:34:23;24.88;;;12.95;;
74656;SDS011;63185;45.642;13.764;2024-01-30T01:36:49;25.73;;;13.52;;
74656;SDS011;63185;45.642;13.764;2024-01-30T01:39:15;24.33;;;13.00;;
74656;SDS011;63185;45.642;13.764;2024-01-30T01:41:41;26.90;;;14.13;;
74656;SDS011;63185;45.642;13.764;2024-01-30T01:44:07;28.85;;;15.45;;
74656;SDS011;63185;45.642;13.764;2024-01-30T01:46:33;30.63;;;14.93;;
74656;SDS011;63185;45.642;13.764;2024-01-30T01:49:00;31.90;;;16.55;;
74656;SDS011;63185;45.642;13.764;2024-01-30T01:51:30;28.80;;;15.82;;
74656;SDS011;63185;45.642;13.764;2024-01-30T01:53:58;33.58;;;18.30;;
74656;SDS011;63185;45.642;13.764;2024-01-30T01:56:30;29.92;;;17.20;;
74656;SDS011;63185;45.642;13.764;2024-01-30T01:58:59;32.47;;;17.58;;
74656;SDS011;63185;45.642;13.764;2024-01-30T02:01:27;29.85;;;16.48;;
74656;SDS011;63185;45.642;13.764;2024-01-30T02:03:55;29.55;;;16.02;;
74656;SDS011;63185;45.642;13.764;2024-01-30T02:06:21;31.75;;;15.90;;
74656;SDS011;63185;45.642;13.764;2024-01-30T02:08:47;24.98;;;15.40;;
74656;SDS011;63185;45.642;13.764;2024-01-30T02:11:13;31.55;;;15.13;;
74656;SDS011;63185;45.642;13.764;2024-01-30T02:13:39;27.38;;;14.30;;
74656;SDS011;63185;45.642;13.764;2024-01-30T02:16:06;30.27;;;15.27;;
74656;SDS011;63185;45.642;13.764;2024-01-30T02:18:31;26.73;;;15.60;;
74656;SDS011;63185;45.642;13.764;2024-01-30T02:20:58;38.63;;;21.73;;
74656;SDS011;63185;45.642;13.764;2024-01-30T02:23:26;44.63;;;23.90;;
74656;SDS011;63185;45.642;13.764;2024-01-30T02:25:52;26.38;;;15.35;;
74656;SDS011;63185;45.642;13.764;2024-01-30T02:28:18;25.90;;;15.25;;
74656;SDS011;63185;45.642;13.764;2024-01-30T02:30:45;26.60;;;14.43;;
74656;SDS011;63185;45.642;13.764;2024-01-30T02:33:11;34.97;;;19.85;;
74656;SDS011;63185;45.642;13.764;2024-01-30T02:35:37;31.90;;;17.45;;
74656;SDS011;63185;45.642;13.764;2024-01-30T02:38:03;29.80;;;14.32;;
74656;SDS011;63185;45.642;13.764;2024-01-30T02:40:29;25.02;;;14.65;;
74656;SDS011;63185;45.642;13.764;2024-01-30T02:42:56;23.58;;;13.75;;
74656;SDS011;63185;45.642;13.764;2024-01-30T02:45:22;26.73;;;14.15;;
74656;SDS011;63185;45.642;13.764;2024-01-30T02:47:48;26.83;;;15.00;;
74656;SDS011;63185;45.642;13.764;2024-01-30T02:50:14;29.77;;;14.57;;
74656;SDS011;63185;45.642;13.764;2024-01-30T02:52:40;28.10;;;14.57;;
74656;SDS011;63185;45.642;13.764;2024-01-30T02:55:06;28.25;;;14.68;;
74656;SDS011;63185;45.642;13.764;2024-01-30T02:57:32;26.52;;;13.75;;
74656;SDS011;63185;45.642;13.764;2024-01-30T02:59:57;30.45;;;14.18;;
74656;SDS011;63185;45.642;13.764;2024-01-30T03:02:23;25.05;;;14.07;;
74656;SDS011;63185;45.642;13.764;2024-01-30T03:04:49;24.95;;;14.00;;
74656;SDS011;63185;45.642;13.764;2024-01-30T03:07:15;27.27;;;14.52;;
74656;SDS011;63185;45.642;13.764;2024-01-30T03:09:41;26.95;;;13.93;;
74656;SDS011;63185;45.642;13.764;2024-01-30T03:12:08;23.40;;;13.98;;
74656;SDS011;63185;45.642;13.764;2024-01-30T03:14:34;26.83;;;14.13;;
74656;SDS011;63185;45.642;13.764;2024-01-30T03:17:03;27.30;;;13.73;;
74656;SDS011;63185;45.642;13.764;2024-01-30T03:19:30;24.15;;;13.20;;
74656;SDS011;63185;45.642;13.764;2024-01-30T03:21:55;22.75;;;12.65;;
74656;SDS011;63185;45.642;13.764;2024-01-30T03:24:21;21.45;;;12.77;;
74656;SDS011;63185;45.642;13.764;2024-01-30T03:26:47;25.40;;;12.55;;
74656;SDS011;63185;45.642;13.764;2024-01-30T03:29:13;24.02;;;13.90;;
74656;SDS011;63185;45.642;13.764;2024-01-30T03:31:39;27.25;;;13.15;;
74656;SDS011;63185;45.642;13.764;2024-01-30T03:34:04;23.40;;;13.48;;
74656;SDS011;63185;45.642;13.764;2024-01-30T03:36:30;27.02;;;12.75;;
74656;SDS011;63185;45.642;13.764;2024-01-30T03:38:58;23.02;;;12.77;;
74656;SDS011;63185;45.642;13.764;2024-01-30T03:41:24;24.13;;;13.18;;
74656;SDS011;63185;45.642;13.764;2024-01-30T03:43:50;23.38;;;12.38;;
74656;SDS011;63185;45.642;13.764;2024-01-30T03:46:15;24.77;;;13.02;;
74656;SDS011;63185;45.642;13.764;2024-01-30T03:48:41;22.55;;;12.43;;
74656;SDS011;63185;45.642;13.764;2024-01-30T03:51:07;21.65;;;11.77;;
74656;SDS011;63185;45.642;13.764;2024-01-30T03:53:33;22.17;;;12.40;;
74656;SDS011;63185;45.642;13.764;2024-01-30T03:55:59;22.92;;;12.25;;
74656;SDS011;63185;45.642;13.764;2024-01-30T03:58:24;21.83;;;11.88;;
74656;SDS011;63185;45.642;13.764;2024-01-30T04:00:50;24.52;;;12.57;;
74656;SDS011;63185;45.642;13.764;2024-01-30T04:03:16;21.67;;;11.45;;
74656;SDS011;63185;45.642;13.764;2024-01-30T04:05:42;21.38;;;11.23;;
74656;SDS011;63185;45.642;13.764;2024-01-30T04:08:08;24.50;;;11.70;;
74656;SDS011;63185;45.642;13.764;2024-01-30T04:10:34;21.65;;;11.95;;
74656;SDS011;63185;45.642;13.764;2024-01-30T04:13:00;19.95;;;11.65;;
74656;SDS011;63185;45.642;13.764;2024-01-30T04:15:26;22.00;;;11.80;;
74656;SDS011;63185;45.642;13.764;2024-01-30T04:17:51;22.15;;;11.38;;
74656;SDS011;63185;45.642;13.764;2024-01-30T04:20:17;22.23;;;11.65;;
74656;SDS011;63185;45.642;13.764;2024-01-30T04:22:43;20.20;;;11.30;;
74656;SDS011;63185;45.642;13.764;2024-01-30T04:25:10;21.45;;;10.48;;
74656;SDS011;63185;45.642;13.764;2024-01-30T04:27:36;18.48;;;10.35;;
74656;SDS011;63185;45.642;13.764;2024-01-30T04:30:01;20.73;;;10.35;;
74656;SDS011;63185;45.642;13.764;2024-01-30T04:32:27;17.92;;;9.27;;
74656;SDS011;63185;45.642;13.764;2024-01-30T04:34:53;15.52;;;8.68;;
74656;SDS011;63185;45.642;13.764;2024-01-30T04:37:18;17.58;;;8.50;;
74656;SDS011;63185;45.642;13.764;2024-01-30T04:39:44;17.30;;;9.05;;
74656;SDS011;63185;45.642;13.764;2024-01-30T04:42:10;15.98;;;9.40;;
74656;SDS011;63185;45.642;13.764;2024-01-30T04:44:35;20.25;;;10.25;;
74656;SDS011;63185;45.642;13.764;2024-01-30T04:47:01;21.00;;;10.07;;
74656;SDS011;63185;45.642;13.764;2024-01-30T04:49:27;20.65;;;10.43;;
74656;SDS011;63185;45.642;13.764;2024-01-30T04:51:54;19.52;;;10.15;;
74656;SDS011;63185;45.642;13.764;2024-01-30T04:54:20;19.35;;;10.82;;
74656;SDS011;63185;45.642;13.764;2024-01-30T04:56:46;21.35;;;10.73;;
74656;SDS011;63185;45.642;13.764;2024-01-30T04:59:11;21.20;;;10.88;;
74656;SDS011;63185;45.642;13.764;2024-01-30T05:01:37;23.30;;;11.85;;
74656;SDS011;63185;45.642;13.764;2024-01-30T05:04:03;17.05;;;10.60;;
74656;SDS011;63185;45.642;13.764;2024-01-30T05:06:29;20.92;;;11.07;;
74656;SDS011;63185;45.642;13.764;2024-01-30T05:08:54;21.70;;;11.25;;
74656;SDS011;63185;45.642;13.764;2024-01-30T05:11:20;22.65;;;10.80;;
74656;SDS011;63185;45.642;13.764;2024-01-30T05:13:46;22.40;;;11.23;;
74656;SDS011;63185;45.642;13.764;2024-01-30T05:16:12;18.98;;;10.43;;
74656;SDS011;63185;45.642;13.764;2024-01-30T05:18:38;18.30;;;9.98;;
74656;SDS011;63185;45.642;13.764;2024-01-30T05:21:04;17.40;;;10.00;;
74656;SDS011;63185;45.642;13.764;2024-01-30T05:23:30;18.80;;;10.07;;
74656;SDS011;63185;45.642;13.764;2024-01-30T05:25:56;19.55;;;9.90;;
74656;SDS011;63185;45.642;13.764;2024-01-30T05:28:21;18.05;;;9.70;;
74656;SDS011;63185;45.642;13.764;2024-01-30T05:30:47;17.98;;;9.32;;
74656;SDS011;63185;45.642;13.764;2024-01-30T05:33:13;17.95;;;9.77;;
74656;SDS011;63185;45.642;13.764;2024-01-30T05:35:38;18.80;;;9.73;;
74656;SDS011;63185;45.642;13.764;2024-01-30T05:38:04;17.60;;;9.70;;
74656;SDS011;63185;45.642;13.764;2024-01-30T05:40:30;20.00;;;9.35;;
74656;SDS011;63185;45.642;13.764;2024-01-30T05:42:56;16.60;;;8.40;;
74656;SDS011;63185;45.642;13.764;2024-01-30T05:45:25;15.48;;;9.20;;
74656;SDS011;63185;45.642;13.764;2024-01-30T05:47:51;18.05;;;9.15;;
74656;SDS011;63185;45.642;13.764;2024-01-30T05:50:17;18.95;;;9.65;;
74656;SDS011;63185;45.642;13.764;2024-01-30T05:52:44;17.05;;;9.32;;
74656;SDS011;63185;45.642;13.764;2024-01-30T05:55:10;17.15;;;9.30;;
74656;SDS011;63185;45.642;13.764;2024-01-30T05:57:37;22.10;;;10.15;;
74656;SDS011;63185;45.642;13.764;2024-01-30T06:00:03;22.77;;;11.88;;
74656;SDS011;63185;45.642;13.764;2024-01-30T06:02:30;22.40;;;11.43;;
74656;SDS011;63185;45.642;13.764;2024-01-30T06:04:56;19.65;;;10.70;;
74656;SDS011;63185;45.642;13.764;2024-01-30T06:07:21;20.65;;;11.10;;
74656;SDS011;63185;45.642;13.764;2024-01-30T06:09:47;24.35;;;11.68;;
74656;SDS011;63185;45.642;13.764;2024-01-30T06:12:13;19.63;;;10.95;;
74656;SDS011;63185;45.642;13.764;2024-01-30T06:14:39;21.20;;;11.50;;
74656;SDS011;63185;45.642;13.764;2024-01-30T06:17:05;21.00;;;11.13;;
74656;SDS011;63185;45.642;13.764;2024-01-30T06:19:30;20.30;;;10.82;;
74656;SDS011;63185;45.642;13.764;2024-01-30T06:21:56;21.85;;;10.45;;
74656;SDS011;63185;45.642;13.764;2024-01-30T06:24:22;19.08;;;9.25;;
74656;SDS011;63185;45.642;13.764;2024-01-30T06:26:48;16.42;;;8.85;;
74656;SDS011;63185;45.642;13.764;2024-01-30T06:29:13;14.65;;;7.78;;
74656;SDS011;63185;45.642;13.764;2024-01-30T06:31:40;15.07;;;7.88;;
74656;SDS011;63185;45.642;13.764;2024-01-30T06:34:11;17.70;;;8.35;;
74656;SDS011;63185;45.642;13.764;2024-01-30T06:36:37;15.32;;;7.90;;
74656;SDS011;63185;45.642;13.764;2024-01-30T06:39:03;18.42;;;8.70;;
74656;SDS011;63185;45.642;13.764;2024-01-30T06:41:29;15.40;;;8.48;;
74656;SDS011;63185;45.642;13.764;2024-01-30T06:43:55;18.90;;;8.68;;
74656;SDS011;63185;45.642;13.764;2024-01-30T06:46:21;18.83;;;9.57;;
74656;SDS011;63185;45.642;13.764;2024-01-30T06:48:47;17.23;;;9.05;;
74656;SDS011;63185;45.642;13.764;2024-01-30T06:51:12;17.20;;;9.50;;
74656;SDS011;63185;45.642;13.764;2024-01-30T06:53:38;16.20;;;9.13;;
74656;SDS011;63185;45.642;13.764;2024-01-30T06:56:04;17.50;;;9.38;;
74656;SDS011;63185;45.642;13.764;2024-01-30T06:58:30;18.05;;;9.30;;
74656;SDS011;63185;45.642;13.764;2024-01-30T07:00:57;16.75;;;9.05;;
74656;SDS011;63185;45.642;13.764;2024-01-30T07:03:23;15.93;;;8.55;;
74656;SDS011;63185;45.642;13.764;2024-01-30T07:05:48;17.00;;;8.75;;
74656;SDS011;63185;45.642;13.764;2024-01-30T07:08:15;21.13;;;9.02;;
74656;SDS011;63185;45.642;13.764;2024-01-30T07:10:42;15.88;;;8.82;;
74656;SDS011;63185;45.642;13.764;2024-01-30T07:13:11;18.52;;;9.45;;
74656;SDS011;63185;45.642;13.764;2024-01-30T07:15:37;23.27;;;9.63;;
74656;SDS011;63185;45.642;13.764;2024-01-30T07:18:03;17.58;;;9.57;;
74656;SDS011;63185;45.642;13.764;2024-01-30T07:20:30;20.50;;;8.88;;
74656;SDS011;63185;45.642;13.764;2024-01-30T07:22:57;18.60;;;8.95;;
74656;SDS011;63185;45.642;13.764;2024-01-30T07:25:23;16.55;;;8.45;;
74656;SDS011;63185;45.642;13.764;2024-01-30T07:27:52;19.05;;;9.38;;
74656;SDS011;63185;45.642;13.764;2024-01-30T07:30:18;14.80;;;8.45;;
74656;SDS011;63185;45.642;13.764;2024-01-30T07:32:44;17.58;;;8.27;;
74656;SDS011;63185;45.642;13.764;2024-01-30T07:35:11;13.98;;;7.90;;
74656;SDS011;63185;45.642;13.764;2024-01-30T07:37:36;15.73;;;7.70;;
74656;SDS011;63185;45.642;13.764;2024-01-30T07:40:02;16.13;;;8.07;;
74656;SDS011;63185;45.642;13.764;2024-01-30T07:42:28;19.95;;;7.53;;
74656;SDS011;63185;45.642;13.764;2024-01-30T07:44:54;16.38;;;8.30;;
74656;SDS011;63185;45.642;13.764;2024-01-30T07:47:20;20.92;;;7.78;;
74656;SDS011;63185;45.642;13.764;2024-01-30T07:49:46;18.83;;;8.82;;
74656;SDS011;63185;45.642;13.764;2024-01-30T07:52:12;16.20;;;9.30;;
74656;SDS011;63185;45.642;13.764;2024-01-30T07:54:47;18.35;;;9.55;;
74656;SDS011;63185;45.642;13.764;2024-01-30T07:57:13;18.02;;;9.55;;
74656;SDS011;63185;45.642;13.764;2024-01-30T07:59:38;22.00;;;9.85;;
74656;SDS011;63185;45.642;13.764;2024-01-30T08:02:04;20.85;;;11.35;;
74656;SDS011;63185;45.642;13.764;2024-01-30T08:04:30;19.73;;;11.27;;
74656;SDS011;63185;45.642;13.764;2024-01-30T08:06:56;24.90;;;11.93;;
74656;SDS011;63185;45.642;13.764;2024-01-30T08:09:22;22.42;;;12.45;;
74656;SDS011;63185;45.642;13.764;2024-01-30T08:11:47;26.73;;;13.25;;
74656;SDS011;63185;45.642;13.764;2024-01-30T08:14:13;23.67;;;12.85;;
74656;SDS011;63185;45.642;13.764;2024-01-30T08:16:39;26.75;;;12.80;;
74656;SDS011;63185;45.642;13.764;2024-01-30T08:19:05;24.77;;;13.57;;
74656;SDS011;63185;45.642;13.764;2024-01-30T08:21:30;20.48;;;12.50;;
74656;SDS011;63185;45.642;13.764;2024-01-30T08:24:01;21.98;;;12.60;;
74656;SDS011;63185;45.642;13.764;2024-01-30T08:26:31;23.25;;;13.27;;
74656;SDS011;63185;45.642;13.764;2024-01-30T08:28:57;23.83;;;13.27;;
74656;SDS011;63185;45.642;13.764;2024-01-30T08:31:23;27.10;;;13.20;;
74656;SDS011;63185;45.642;13.764;2024-01-30T08:33:49;25.77;;;13.85;;
74656;SDS011;63185;45.642;13.764;2024-01-30T08:36:15;23.75;;;12.80;;
74656;SDS011;63185;45.642;13.764;2024-01-30T08:38:42;28.15;;;13.00;;
74656;SDS011;63185;45.642;13.764;2024-01-30T08:41:08;23.35;;;12.70;;
74656;SDS011;63185;45.642;13.764;2024-01-30T08:43:33;23.85;;;13.10;;
74656;SDS011;63185;45.642;13.764;2024-01-30T08:45:59;24.90;;;13.50;;
74656;SDS011;63185;45.642;13.764;2024-01-30T08:48:26;25.58;;;12.73;;
74656;SDS011;63185;45.642;13.764;2024-01-30T08:50:52;29.10;;;13.55;;
74656;SDS011;63185;45.642;13.764;2024-01-30T08:53:17;27.27;;;13.02;;
74656;SDS011;63185;45.642;13.764;2024-01-30T08:55:43;26.83;;;13.93;;
74656;SDS011;63185;45.642;13.764;2024-01-30T08:58:09;26.08;;;13.88;;
74656;SDS011;63185;45.642;13.764;2024-01-30T09:00:35;23.40;;;13.35;;
74656;SDS011;63185;45.642;13.764;2024-01-30T09:03:01;24.42;;;12.95;;
74656;SDS011;63185;45.642;13.764;2024-01-30T09:05:28;26.75;;;13.18;;
74656;SDS011;63185;45.642;13.764;2024-01-30T09:07:54;25.40;;;13.48;;
74656;SDS011;63185;45.642;13.764;2024-01-30T09:10:19;20.23;;;12.30;;
74656;SDS011;63185;45.642;13.764;2024-01-30T09:12:45;25.70;;;13.25;;
74656;SDS011;63185;45.642;13.764;2024-01-30T09:15:12;23.95;;;12.32;;
74656;SDS011;63185;45.642;13.764;2024-01-30T09:17:37;23.17;;;12.30;;
74656;SDS011;63185;45.642;13.764;2024-01-30T09:20:03;29.35;;;12.18;;
74656;SDS011;63185;45.642;13.764;2024-01-30T09:22:30;21.38;;;12.63;;
74656;SDS011;63185;45.642;13.764;2024-01-30T09:24:56;21.15;;;12.10;;
74656;SDS011;63185;45.642;13.764;2024-01-30T09:27:22;23.27;;;11.88;;
74656;SDS011;63185;45.642;13.764;2024-01-30T09:29:48;20.80;;;12.65;;
74656;SDS011;63185;45.642;13.764;2024-01-30T09:32:13;20.75;;;11.88;;
74656;SDS011;63185;45.642;13.764;2024-01-30T09:34:39;23.15;;;12.38;;
74656;SDS011;63185;45.642;13.764;2024-01-30T09:37:05;21.38;;;12.23;;
74656;SDS011;63185;45.642;13.764;2024-01-30T09:39:30;21.65;;;11.98;;
74656;SDS011;63185;45.642;13.764;2024-01-30T09:44:30;22.48;;;11.63;;
74656;SDS011;63185;45.642;13.764;2024-01-30T09:46:59;18.90;;;11.38;;
74656;SDS011;63185;45.642;13.764;2024-01-30T09:49:28;17.90;;;11.75;;
74656;SDS011;63185;45.642;13.764;2024-01-30T09:51:58;21.38;;;11.55;;
74656;SDS011;63185;45.642;13.764;2024-01-30T09:54:25;23.15;;;11.48;;
74656;SDS011;63185;45.642;13.764;2024-01-30T09:56:50;19.73;;;10.82;;
74656;SDS011;63185;45.642;13.764;2024-01-30T09:59:16;21.98;;;11.93;;
74656;SDS011;63185;45.642;13.764;2024-01-30T10:01:42;18.73;;;11.10;;
74656;SDS011;63185;45.642;13.764;2024-01-30T10:04:08;20.02;;;11.50;;
74656;SDS011;63185;45.642;13.764;2024-01-30T10:06:34;18.85;;;10.65;;
74656;SDS011;63185;45.642;13.764;2024-01-30T10:08:59;21.77;;;10.35;;
74656;SDS011;63185;45.642;13.764;2024-01-30T10:11:25;19.90;;;10.05;;
74656;SDS011;63185;45.642;13.764;2024-01-30T10:13:51;17.90;;;10.48;;
74656;SDS011;63185;45.642;13.764;2024-01-30T10:16:16;19.25;;;9.80;;
74656;SDS011;63185;45.642;13.764;2024-01-30T10:18:42;16.70;;;10.30;;
74656;SDS011;63185;45.642;13.764;2024-01-30T10:21:08;17.20;;;9.70;;
74656;SDS011;63185;45.642;13.764;2024-01-30T10:23:35;17.40;;;9.32;;
74656;SDS011;63185;45.642;13.764;2024-01-30T10:26:02;18.30;;;10.18;;
74656;SDS011;63185;45.642;13.764;2024-01-30T10:28:29;22.55;;;10.68;;
74656;SDS011;63185;45.642;13.764;2024-01-30T10:31:01;18.67;;;10.88;;
74656;SDS011;63185;45.642;13.764;2024-01-30T10:33:29;19.45;;;10.70;;
74656;SDS011;63185;45.642;13.764;2024-01-30T10:36:00;19.23;;;10.45;;
74656;SDS011;63185;45.642;13.764;2024-01-30T10:38:30;17.88;;;9.90;;
74656;SDS011;63185;45.642;13.764;2024-01-30T10:40:57;17.67;;;9.82;;
74656;SDS011;63185;45.642;13.764;2024-01-30T10:43:30;18.60;;;10.35;;
74656;SDS011;63185;45.642;13.764;2024-01-30T10:46:18;18.23;;;9.75;;
74656;SDS011;63185;45.642;13.764;2024-01-30T10:48:46;19.45;;;9.63;;
74656;SDS011;63185;45.642;13.764;2024-01-30T10:51:20;22.52;;;10.23;;
74656;SDS011;63185;45.642;13.764;2024-01-30T10:53:48;20.30;;;10.45;;
74656;SDS011;63185;45.642;13.764;2024-01-30T10:56:16;18.90;;;9.43;;
74656;SDS011;63185;45.642;13.764;2024-01-30T10:58:42;20.15;;;10.05;;
74656;SDS011;63185;45.642;13.764;2024-01-30T11:01:07;18.33;;;8.73;;
74656;SDS011;63185;45.642;13.764;2024-01-30T11:03:34;21.95;;;9.55;;
74656;SDS011;63185;45.642;13.764;2024-01-30T11:06:02;17.58;;;9.25;;
74656;SDS011;63185;45.642;13.764;2024-01-30T11:08:28;17.30;;;9.55;;
74656;SDS011;63185;45.642;13.764;2024-01-30T11:10:57;15.57;;;8.93;;
74656;SDS011;63185;45.642;13.764;2024-01-30T11:13:29;18.67;;;10.30;;
74656;SDS011;63185;45.642;13.764;2024-01-30T11:16:02;18.33;;;9.82;;
74656;SDS011;63185;45.642;13.764;2024-01-30T11:18:29;19.27;;;9.98;;
74656;SDS011;63185;45.642;13.764;2024-01-30T11:20:56;20.70;;;10.73;;
74656;SDS011;63185;45.642;13.764;2024-01-30T11:23:23;15.50;;;9.45;;
74656;SDS011;63185;45.642;13.764;2024-01-30T11:25:48;22.10;;;9.40;;
74656;SDS011;63185;45.642;13.764;2024-01-30T11:28:17;20.03;;;9.67;;
74656;SDS011;63185;45.642;13.764;2024-01-30T11:30:44;15.65;;;8.90;;
74656;SDS011;63185;45.642;13.764;2024-01-30T11:33:10;18.33;;;9.65;;
74656;SDS011;63185;45.642;13.764;2024-01-30T11:35:38;14.95;;;9.02;;
74656;SDS011;63185;45.642;13.764;2024-01-30T11:38:05;16.58;;;9.13;;
74656;SDS011;63185;45.642;13.764;2024-01-30T11:40:33;16.75;;;8.80;;
74656;SDS011;63185;45.642;13.764;2024-01-30T11:42:59;15.77;;;7.93;;
74656;SDS011;63185;45.642;13.764;2024-01-30T11:45:26;17.50;;;7.93;;
74656;SDS011;63185;45.642;13.764;2024-01-30T11:47:52;14.65;;;7.93;;
74656;SDS011;63185;45.642;13.764;2024-01-30T11:50:18;12.77;;;7.35;;
74656;SDS011;63185;45.642;13.764;2024-01-30T11:52:44;20.90;;;8.13;;
74656;SDS011;63185;45.642;13.764;2024-01-30T11:55:10;16.00;;;8.77;;
74656;SDS011;63185;45.642;13.764;2024-01-30T11:57:37;18.92;;;8.95;;
74656;SDS011;63185;45.642;13.764;2024-01-30T12:00:04;18.17;;;9.30;;
74656;SDS011;63185;45.642;13.764;2024-01-30T12:02:38;15.00;;;8.48;;
74656;SDS011;63185;45.642;13.764;2024-01-30T12:07:31;16.20;;;8.32;;
74656;SDS011;63185;45.642;13.764;2024-01-30T12:09:57;15.63;;;8.90;;
74656;SDS011;63185;45.642;13.764;2024-01-30T12:12:26;13.52;;;7.75;;
74656;SDS011;63185;45.642;13.764;2024-01-30T12:14:53;14.05;;;8.52;;
74656;SDS011;63185;45.642;13.764;2024-01-30T12:17:29;17.67;;;8.95;;
74656;SDS011;63185;45.642;13.764;2024-01-30T12:20:03;17.13;;;8.73;;
74656;SDS011;63185;45.642;13.764;2024-01-30T12:22:36;16.27;;;7.95;;
74656;SDS011;63185;45.642;13.764;2024-01-30T12:25:13;14.60;;;8.07;;
74656;SDS011;63185;45.642;13.764;2024-01-30T12:27:42;12.93;;;7.88;;
74656;SDS011;63185;45.642;13.764;2024-01-30T12:30:09;18.30;;;8.50;;
74656;SDS011;63185;45.642;13.764;2024-01-30T12:32:38;17.20;;;9.25;;
74656;SDS011;63185;45.642;13.764;2024-01-30T12:35:10;17.63;;;9.05;;
74656;SDS011;63185;45.642;13.764;2024-01-30T12:37:37;18.58;;;8.75;;
74656;SDS011;63185;45.642;13.764;2024-01-30T12:40:04;18.67;;;9.07;;
74656;SDS011;63185;45.642;13.764;2024-01-30T12:42:34;17.10;;;9.15;;
74656;SDS011;63185;45.642;13.764;2024-01-30T12:45:01;16.70;;;9.43;;
74656;SDS011;63185;45.642;13.764;2024-01-30T12:47:28;15.25;;;9.25;;
74656;SDS011;63185;45.642;13.764;2024-01-30T12:49:54;15.88;;;8.40;;
74656;SDS011;63185;45.642;13.764;2024-01-30T12:52:20;15.98;;;8.38;;
74656;SDS011;63185;45.642;13.764;2024-01-30T12:54:47;15.82;;;8.73;;
74656;SDS011;63185;45.642;13.764;2024-01-30T12:57:13;17.60;;;8.55;;
74656;SDS011;63185;45.642;13.764;2024-01-30T12:59:39;18.50;;;8.68;;
74656;SDS011;63185;45.642;13.764;2024-01-30T13:02:04;15.35;;;8.32;;
74656;SDS011;63185;45.642;13.764;2024-01-30T13:04:31;13.88;;;8.25;;
74656;SDS011;63185;45.642;13.764;2024-01-30T13:06:57;19.98;;;9.00;;
74656;SDS011;63185;45.642;13.764;2024-01-30T13:09:23;17.45;;;9.50;;
74656;SDS011;63185;45.642;13.764;2024-01-30T13:11:50;16.55;;;8.95;;
74656;SDS011;63185;45.642;13.764;2024-01-30T13:14:16;15.02;;;8.38;;
74656;SDS011;63185;45.642;13.764;2024-01-30T13:16:42;19.38;;;9.48;;
74656;SDS011;63185;45.642;13.764;2024-01-30T13:19:08;15.93;;;9.63;;
74656;SDS011;63185;45.642;13.764;2024-01-30T13:21:34;19.65;;;10.60;;
74656;SDS011;63185;45.642;13.764;2024-01-30T13:23:59;19.80;;;11.02;;
74656;SDS011;63185;45.642;13.764;2024-01-30T13:26:25;17.85;;;11.55;;
74656;SDS011;63185;45.642;13.764;2024-01-30T13:28:51;17.00;;;10.20;;
74656;SDS011;63185;45.642;13.764;2024-01-30T13:31:16;22.52;;;13.30;;
74656;SDS011;63185;45.642;13.764;2024-01-30T13:33:42;27.38;;;12.82;;
74656;SDS011;63185;45.642;13.764;2024-01-30T13:36:10;19.27;;;11.20;;
74656;SDS011;63185;45.642;13.764;2024-01-30T13:38:36;16.80;;;10.10;;
74656;SDS011;63185;45.642;13.764;2024-01-30T13:41:02;16.83;;;8.50;;
74656;SDS011;63185;45.642;13.764;2024-01-30T13:43:28;18.67;;;9.07;;
74656;SDS011;63185;45.642;13.764;2024-01-30T13:45:53;13.80;;;8.18;;
74656;SDS011;63185;45.642;13.764;2024-01-30T13:48:20;16.58;;;8.10;;
74656;SDS011;63185;45.642;13.764;2024-01-30T13:50:45;15.60;;;8.10;;
74656;SDS011;63185;45.642;13.764;2024-01-30T13:53:11;13.98;;;7.57;;
74656;SDS011;63185;45.642;13.764;2024-01-30T13:55:37;17.17;;;7.60;;
74656;SDS011;63185;45.642;13.764;2024-01-30T13:58:04;16.73;;;6.90;;
74656;SDS011;63185;45.642;13.764;2024-01-30T14:00:30;16.73;;;8.13;;
74656;SDS011;63185;45.642;13.764;2024-01-30T14:02:56;14.73;;;8.02;;
74656;SDS011;63185;45.642;13.764;2024-01-30T14:05:23;16.92;;;8.45;;
74656;SDS011;63185;45.642;13.764;2024-01-30T14:07:55;16.85;;;8.27;;
74656;SDS011;63185;45.642;13.764;2024-01-30T14:10:22;16.23;;;7.93;;
74656;SDS011;63185;45.642;13.764;2024-01-30T14:12:48;15.82;;;8.52;;
74656;SDS011;63185;45.642;13.764;2024-01-30T14:15:14;16.20;;;9.23;;